Winnipeg James Armstrong Richardson International Airport
CYWG : now visible

Airfield :











YOU CAN JOIN US ON...

 
LOGIN :

Register | Disclaimer

   EN    FR    IT 

 









Legend :    VFR   Marginal VFR   IFR   Intensive IFR   Very Intensive IFR
Visi :
Ceiling :
>= 8 km
>= 3000ft
5 to 8 km
1000 to 3000 ft
1500m to 5 km
500 to 1000 ft
800 to 1500m
200 to 500 ft
< 800m
< 200 ft
Symbols :   Thunderstorms  Fog  Heavy snow  Heavy precipitations  Wind > 20 kt







- Airport Elevation : 783 ft
- IATA code : YWG


CYWG - Winnipeg James Armstrong Richardson International

CURRENT METAR :
  • 251600Z 31012KT 15SM SCT060CB BKN220 24/14 A2962 RMK CB3CI3 CB E SLP033 DENSITY ALT 2300FT

EXPIRED METARs :
  • 251500Z 31009KT 15SM FEW060 SCT120 BKN220 21/15 A2962 RMK CU1AC2CI3 SLP031 DENSITY ALT 2100FT
  • 251400Z 30010KT 15SM FEW085 BKN140 BKN210 20/15 A2961 RMK AC1AC2CI3 SLP028 DENSITY ALT 1900FT

TAF TAF CYWG
Valid from the 25 at 12:00 until the 26 at 12:00 UTC


251141Z 2512/2612 26006KT P6SM SCT090 BKN140
TEMPO 2512/2514 P6SM -SHRA BKN090
FM251400 28010KT P6SM SCT060 BKN090
FM252000 31015KT P6SM SCT060 BKN090
TEMPO 2520/2603 P6SM VCTS SCT060CB
FM260300 28008KT P6SM FEW070 SCT100 RMK NXT FCST BY 251800Z
CZWG FIR / North America



MET'MAP, your aeronautical weather chart ! - Copyright ORBIFLY December 2007 - Disclaimer

ORBIFLY MET'MAP TEAM :

Programming & Development : Alexandra Zaïnal
Concept & Development : Baudouin d'Aumeries
Co-Development & Prog : Marc-Olivier Méhu
Technical & hardware support : Manuel Goepfert

Contact : metmap@orbifly.com




SOURCES & CREDITS :

   NOAA       Earth
Advisory